Time;durP1;ratioP1;P1;durP2;ratioP2;P2;SDS_P1;SDS_P2;PMS_P1;PMS_P2;Temp;Humidity;BMP_temperature;BMP_pressure;BME280_temperature;BME280_humidity;BME280_pressure;Samples;Min_cycle;Max_cycle;Signal;HPM_P1;HPM_P2
2021/12/07 00:01:16;;;;;;;13.68;8.75;;;6.10;82.50;;;;;;10822708;33;20459;-69
2021/12/07 00:07:19;;;;;;;13.27;9.45;;;6.00;82.30;;;;;;10826521;33;20066;-69
2021/12/07 00:13:22;;;;;;;12.77;8.93;;;5.90;82.20;;;;;;10826580;33;20020;-69
2021/12/07 00:19:25;;;;;;;14.65;9.70;;;5.90;82.20;;;;;;10825789;33;20061;-69
2021/12/07 00:25:27;;;;;;;13.20;7.90;;;5.90;82.00;;;;;;10826299;32;20046;-69
2021/12/07 00:31:39;;;;;;;12.32;7.97;;;5.90;82.20;;;;;;10825897;33;20070;-69
2021/12/07 00:37:45;;;;;;;11.50;8.75;;;5.70;81.90;;;;;;10821997;33;20024;-69
2021/12/07 00:43:47;;;;;;;10.68;7.32;;;5.60;81.90;;;;;;10825605;33;20050;-69
2021/12/07 00:49:49;;;;;;;11.77;8.05;;;5.70;82.30;;;;;;10825397;32;20321;-69
2021/12/07 00:55:56;;;;;;;10.65;7.22;;;5.70;82.30;;;;;;10825154;33;20050;-69
2021/12/07 01:01:59;;;;;;;13.75;9.57;;;5.70;82.00;;;;;;10825227;33;20035;-69
2021/12/07 01:26:50;;;;;;;13.55;9.52;;;5.60;82.20;;;;;;10824574;33;20008;-69
2021/12/07 01:33:12;;;;;;;11.57;7.12;;;5.40;82.30;;;;;;10824469;33;20043;-69
2021/12/07 01:39:47;;;;;;;12.70;8.13;;;5.40;82.30;;;;;;10824398;33;20042;-69
2021/12/07 01:46:10;;;;;;;10.23;7.37;;;5.50;82.10;;;;;;10371793;27;12395941;-69
2021/12/07 02:04:40;;;;;;;13.30;8.75;;;5.60;82.90;;;;;;10716742;33;20048;-69
2021/12/07 02:10:43;;;;;;;9.50;6.78;;;5.50;82.60;;;;;;10761285;33;20036;-69
2021/12/07 02:17:00;;;;;;;8.18;5.37;;;5.40;82.30;;;;;;10793203;33;20048;-69
2021/12/07 02:23:03;;;;;;;12.05;9.07;;;5.40;82.20;;;;;;10792863;33;20028;-69
2021/12/07 02:29:06;;;;;;;11.95;6.57;;;5.40;82.00;;;;;;10792742;33;20055;-69
2021/12/07 02:35:11;;;;;;;9.10;6.22;;;5.40;82.10;;;;;;10789745;33;20047;-69
2021/12/07 02:41:14;;;;;;;10.43;7.03;;;5.30;82.10;;;;;;10792473;33;20052;-69
2021/12/07 02:47:18;;;;;;;9.80;5.93;;;5.20;82.20;;;;;;10792501;33;20020;-69
2021/12/07 02:53:24;;;;;;;9.57;5.78;;;5.20;82.20;;;;;;10792199;33;20016;-69
2021/12/07 02:59:27;;;;;;;8.82;6.25;;;5.10;82.20;;;;;;10791829;33;20028;-69
2021/12/07 03:30:37;;;;;;;7.05;4.60;;;5.00;82.80;;;;;;10791076;33;20025;-70
2021/12/07 03:36:40;;;;;;;7.65;4.57;;;5.10;82.40;;;;;;10789380;33;20050;-70
2021/12/07 03:42:42;;;;;;;9.82;5.32;;;5.20;82.40;;;;;;10777760;32;20051;-70
2021/12/07 03:48:46;;;;;;;6.60;4.78;;;5.20;82.70;;;;;;10790629;32;20452;-70
2021/12/07 03:54:49;;;;;;;11.30;6.35;;;5.20;82.50;;;;;;10777478;33;20047;-70
2021/12/07 04:00:51;;;;;;;6.10;3.67;;;5.20;82.60;;;;;;10790054;33;20039;-70
2021/12/07 04:06:54;;;;;;;9.30;6.15;;;5.20;82.90;;;;;;10789974;33;20024;-70
2021/12/07 04:12:57;;;;;;;8.90;4.70;;;5.30;83.20;;;;;;10789889;32;20024;-70
2021/12/07 04:19:00;;;;;;;9.18;4.82;;;5.30;83.00;;;;;;10785689;33;20051;-70
2021/12/07 04:25:06;;;;;;;6.72;4.40;;;5.20;82.90;;;;;;10789228;32;20336;-70
2021/12/07 04:31:09;;;;;;;6.72;4.50;;;5.10;82.80;;;;;;10776283;33;20028;-70
2021/12/07 04:37:11;;;;;;;10.88;5.95;;;5.10;82.70;;;;;;10789215;32;20017;-70
2021/12/07 04:43:13;;;;;;;8.63;4.68;;;5.00;82.60;;;;;;10788959;33;20313;-70
2021/12/07 05:01:48;;;;;;;6.00;3.90;;;4.60;82.90;;;;;;10784810;33;20057;-74
2021/12/07 05:07:53;;;;;;;6.55;3.75;;;4.60;83.00;;;;;;10788356;33;20405;-74
2021/12/07 05:14:11;;;;;;;6.43;3.75;;;4.60;82.80;;;;;;10784386;32;20359;-75
2021/12/07 05:39:15;;;;;;;7.03;4.60;;;4.70;82.40;;;;;;10793618;33;20028;-74
2021/12/07 05:45:24;;;;;;;6.37;3.90;;;4.70;82.30;;;;;;10794116;33;20050;-75
2021/12/07 05:51:26;;;;;;;;;;;4.80;82.10;;;;;;10794257;33;20063;-74
2021/12/07 05:57:28;;;;;;;8.63;5.10;;;4.90;81.90;;;;;;10793702;33;19927;-74
2021/12/07 06:03:30;;;;;;;8.13;4.78;;;5.00;82.40;;;;;;10793802;32;20405;-71
2021/12/07 06:09:33;;;;;;;6.40;4.03;;;5.20;82.20;;;;;;10793355;33;20384;-71
2021/12/07 06:15:38;;;;;;;6.00;3.53;;;5.20;81.80;;;;;;10780231;33;20047;-70
2021/12/07 06:21:41;;;;;;;6.37;3.78;;;5.10;81.70;;;;;;10793090;33;20055;-70
2021/12/07 06:27:44;;;;;;;8.05;5.57;;;5.20;82.10;;;;;;10790665;33;20033;-70
2021/12/07 06:33:46;;;;;;;7.12;4.22;;;5.40;82.00;;;;;;10779866;32;20063;-74
2021/12/07 06:39:48;;;;;;;8.90;5.72;;;5.20;81.50;;;;;;10792275;33;20314;-74
2021/12/07 06:45:51;;;;;;;9.23;5.80;;;5.20;81.30;;;;;;10792188;33;20025;-74
2021/12/07 06:51:54;;;;;;;10.57;6.50;;;5.20;81.10;;;;;;10792032;33;20028;-74
2021/12/07 06:57:56;;;;;;;10.52;6.53;;;5.30;80.60;;;;;;10792139;33;20055;-74
2021/12/07 07:03:59;;;;;;;11.98;7.57;;;5.40;80.30;;;;;;10791761;33;20438;-74
2021/12/07 07:10:04;;;;;;;9.52;5.95;;;5.40;80.10;;;;;;10772475;32;20299;-74
2021/12/07 07:16:07;;;;;;;10.20;7.07;;;5.50;80.10;;;;;;10771946;33;20379;-74
2021/12/07 07:22:09;;;;;;;12.52;8.25;;;5.40;80.30;;;;;;10791784;33;20042;-74
2021/12/07 07:28:12;;;;;;;11.23;7.40;;;5.60;80.20;;;;;;10789555;33;20024;-74
2021/12/07 07:34:14;;;;;;;16.83;11.15;;;5.50;79.70;;;;;;10789579;33;20043;-74
2021/12/07 07:40:19;;;;;;;18.62;14.40;;;5.20;80.40;;;;;;10777812;33;20082;-75
2021/12/07 07:46:21;;;;;;;19.90;11.05;;;5.30;80.50;;;;;;10790771;33;20042;-75
2021/12/07 07:52:24;;;;;;;17.35;12.52;;;5.60;80.20;;;;;;10790438;33;20016;-75
2021/12/07 07:58:27;;;;;;;13.90;9.95;;;5.80;80.20;;;;;;10776301;33;20060;-75
2021/12/07 08:04:29;;;;;;;13.50;9.13;;;5.90;79.70;;;;;;10790035;33;20047;-74
2021/12/07 08:10:31;;;;;;;17.52;11.25;;;5.90;80.20;;;;;;10789845;33;20032;-74
2021/12/07 08:16:34;;;;;;;11.07;8.23;;;6.10;80.20;;;;;;10789773;33;20418;-74
2021/12/07 08:22:36;;;;;;;10.98;8.20;;;6.20;80.10;;;;;;10773529;33;20056;-74
2021/12/07 08:28:38;;;;;;;12.00;7.93;;;6.40;80.20;;;;;;10789344;33;20055;-74
2021/12/07 08:34:41;;;;;;;18.67;12.52;;;6.50;80.10;;;;;;10789256;33;20348;-74
2021/12/07 08:40:43;;;;;;;18.55;11.73;;;6.60;80.10;;;;;;10789011;33;20059;-74
2021/12/07 08:46:44;;;;;;;15.73;11.57;;;6.70;80.40;;;;;;10788800;33;20409;-74
2021/12/07 08:52:48;;;;;;;17.40;9.85;;;6.80;80.50;;;;;;10785116;33;20098;-74
2021/12/07 09:05:12;;;;;;;12.55;8.55;;;6.90;80.60;;;;;;10782434;33;20040;-75
2021/12/07 09:11:15;;;;;;;10.93;8.20;;;7.00;81.10;;;;;;10778953;33;20075;-75
2021/12/07 09:17:17;;;;;;;13.40;7.12;;;7.10;81.20;;;;;;10784623;33;20032;-75
2021/12/07 09:23:20;;;;;;;10.52;6.93;;;7.20;81.20;;;;;;10784568;33;20400;-75
2021/12/07 09:29:22;;;;;;;8.00;5.80;;;7.30;81.40;;;;;;10759375;32;20334;-75
2021/12/07 09:35:25;;;;;;;13.85;7.80;;;7.40;81.40;;;;;;10756367;33;20020;-75
2021/12/07 09:41:27;;;;;;;11.32;6.62;;;7.50;81.30;;;;;;10792517;27;20060;-75
2021/12/07 09:47:30;;;;;;;11.95;8.80;;;7.50;81.30;;;;;;10823330;33;20058;-75
2021/12/07 09:53:33;;;;;;;9.98;6.68;;;7.40;81.60;;;;;;10821554;33;20028;-75
2021/12/07 09:59:35;;;;;;;10.88;7.05;;;7.60;81.80;;;;;;10821944;33;20036;-74
2021/12/07 10:05:40;;;;;;;13.30;8.70;;;7.60;82.00;;;;;;10823255;33;20064;-75
2021/12/07 10:11:42;;;;;;;11.38;7.75;;;7.70;82.00;;;;;;10823223;33;20028;-74
2021/12/07 10:18:01;;;;;;;11.95;7.80;;;7.80;81.90;;;;;;10823506;33;20316;-75
2021/12/07 10:24:07;;;;;;;9.43;6.93;;;8.00;82.20;;;;;;10825298;32;20024;-74
2021/12/07 10:30:21;;;;;;;8.25;5.45;;;8.20;81.90;;;;;;10829296;33;20116;-75
2021/12/07 10:36:48;;;;;;;11.52;6.70;;;8.20;81.70;;;;;;10752956;33;20051;-75
2021/12/07 10:42:52;;;;;;;9.52;6.87;;;8.40;82.00;;;;;;10750025;33;20416;-74
2021/12/07 10:49:10;;;;;;;8.10;5.05;;;8.20;81.30;;;;;;10739547;33;20029;-74
2021/12/07 10:55:20;;;;;;;8.93;5.37;;;8.00;82.30;;;;;;10739825;33;20436;-73
2021/12/07 11:01:53;;;;;;;7.53;4.93;;;8.00;82.60;;;;;;10752350;33;20025;-74
2021/12/07 11:07:56;;;;;;;7.45;4.43;;;8.50;82.50;;;;;;10673048;33;20045;-73
2021/12/07 11:14:04;;;;;;;8.65;4.32;;;8.80;82.40;;;;;;10678493;33;20025;-74
2021/12/07 11:20:06;;;;;;;9.13;4.43;;;9.20;81.80;;;;;;10677207;33;20436;-73
2021/12/07 11:32:14;;;;;;;8.65;4.87;;;8.90;81.40;;;;;;10678222;33;20053;-70
2021/12/07 11:38:29;;;;;;;7.28;3.87;;;9.00;81.70;;;;;;10678595;33;20136;-70
2021/12/07 11:44:34;;;;;;;4.87;3.40;;;9.20;81.20;;;;;;10773103;33;20024;-70
2021/12/07 11:50:44;;;;;;;6.70;3.80;;;9.10;81.60;;;;;;10790369;33;20078;-70
2021/12/07 11:56:46;;;;;;;;;;;9.10;82.20;;;;;;10790607;33;20298;-70
2021/12/07 12:02:48;;;;;;;4.75;3.42;;;9.20;82.10;;;;;;10790149;33;19931;-70
2021/12/07 12:08:51;;;;;;;7.62;4.32;;;9.20;82.10;;;;;;10789636;33;20056;-70
2021/12/07 12:15:31;;;;;;;6.43;3.62;;;9.10;81.40;;;;;;10803113;33;20078;-70
2021/12/07 12:22:01;;;;;;;7.05;4.03;;;9.10;81.30;;;;;;10823664;33;20455;-70
2021/12/07 12:28:04;;;;;;;5.12;3.60;;;9.10;82.20;;;;;;10825673;33;20359;-70
2021/12/07 12:34:16;;;;;;;5.90;2.97;;;9.10;80.90;;;;;;10825653;33;20028;-70
2021/12/07 12:40:21;;;;;;;6.80;4.00;;;8.90;80.60;;;;;;10825621;33;20295;-70
2021/12/07 12:46:29;;;;;;;6.57;4.10;;;9.10;81.70;;;;;;10824264;32;20031;-70
2021/12/07 12:52:44;;;;;;;8.57;4.32;;;9.30;81.10;;;;;;10825248;33;20035;-70
2021/12/07 12:58:55;;;;;;;8.23;4.20;;;9.50;81.80;;;;;;10824894;32;20040;-70
2021/12/07 13:05:04;;;;;;;4.25;2.78;;;9.70;81.60;;;;;;10824982;32;20395;-70
2021/12/07 13:11:06;;;;;;;7.40;4.45;;;9.90;81.50;;;;;;10821154;32;20212;-70
2021/12/07 13:17:20;;;;;;;8.75;4.00;;;10.10;81.40;;;;;;10821419;33;20039;-70
2021/12/07 13:23:29;;;;;;;4.28;2.53;;;10.20;81.10;;;;;;10823954;33;20028;-70
2021/12/07 13:29:30;;;;;;;6.55;3.65;;;10.20;81.00;;;;;;10824124;33;20050;-70
2021/12/07 13:35:32;;;;;;;6.72;3.50;;;10.10;81.20;;;;;;10824443;33;20064;-70
2021/12/07 13:41:35;;;;;;;8.15;4.20;;;9.90;81.20;;;;;;10819652;32;20071;-70
2021/12/07 13:47:42;;;;;;;4.97;2.85;;;9.80;81.30;;;;;;10824401;33;20043;-70
2021/12/07 13:53:46;;;;;;;6.12;3.05;;;9.60;80.60;;;;;;10824059;33;20028;-70
2021/12/07 13:59:58;;;;;;;6.45;2.85;;;9.50;81.30;;;;;;10829452;32;20024;-70
2021/12/07 14:06:00;;;;;;;4.28;2.67;;;9.50;81.90;;;;;;10827823;33;20023;-70
2021/12/07 14:12:04;;;;;;;4.62;2.87;;;9.90;82.20;;;;;;10825709;33;20058;-70
2021/12/07 14:18:25;;;;;;;5.60;2.75;;;10.30;82.10;;;;;;10829982;33;20328;-70
2021/12/07 14:24:33;;;;;;;5.65;3.67;;;11.20;81.80;;;;;;10829676;33;20379;-70
2021/12/07 14:30:36;;;;;;;5.97;3.28;;;11.90;80.40;;;;;;10829587;33;20055;-70
2021/12/07 14:36:54;;;;;;;7.57;4.37;;;12.10;80.20;;;;;;10825210;33;20054;-70
2021/12/07 14:43:05;;;;;;;7.37;3.17;;;11.70;80.60;;;;;;10829105;33;20032;-70
2021/12/07 14:49:06;;;;;;;6.53;3.97;;;11.30;81.10;;;;;;10812617;33;20082;-70
2021/12/07 14:55:18;;;;;;;5.85;4.30;;;11.10;81.30;;;;;;10803417;33;20055;-70
2021/12/07 15:01:57;;;;;;;6.90;5.12;;;10.80;81.60;;;;;;10824058;33;20043;-70
2021/12/07 15:07:59;;;;;;;9.75;4.55;;;10.60;81.60;;;;;;10830835;32;20040;-70
2021/12/07 15:14:04;;;;;;;9.23;6.43;;;10.50;81.60;;;;;;10829510;32;20413;-70
2021/12/07 15:20:11;;;;;;;11.25;5.53;;;10.40;81.60;;;;;;10829949;32;20605;-70
2021/12/07 15:26:15;;;;;;;13.07;7.53;;;10.20;81.40;;;;;;10829724;32;20023;-70
2021/12/07 15:32:19;;;;;;;8.27;4.90;;;9.90;81.50;;;;;;10829314;32;20050;-70
2021/12/07 15:38:21;;;;;;;11.20;6.07;;;9.80;81.70;;;;;;10827241;32;20024;-70
2021/12/07 15:44:27;;;;;;;10.10;6.72;;;9.70;81.60;;;;;;10813940;33;20047;-70
2021/12/07 15:50:31;;;;;;;9.27;6.07;;;9.60;81.50;;;;;;10825410;33;20058;-70
2021/12/07 15:56:34;;;;;;;10.13;6.32;;;9.50;81.50;;;;;;10821498;33;20036;-70
2021/12/07 16:02:36;;;;;;;9.55;6.50;;;9.30;81.50;;;;;;10825311;33;20028;-73
2021/12/07 16:08:38;;;;;;;10.35;6.70;;;9.20;81.70;;;;;;10825096;33;20418;-73
2021/12/07 16:14:41;;;;;;;6.80;4.55;;;9.10;81.60;;;;;;10824971;33;20023;-74
2021/12/07 16:20:44;;;;;;;10.80;5.80;;;9.00;81.60;;;;;;10810879;32;20035;-74
2021/12/07 16:26:50;;;;;;;14.77;6.50;;;8.80;81.40;;;;;;10823897;33;20024;-74
2021/12/07 16:32:53;;;;;;;8.10;4.90;;;8.70;81.50;;;;;;10824413;33;20051;-74
2021/12/07 16:38:59;;;;;;;9.68;6.18;;;8.70;81.30;;;;;;10790897;33;20024;-74
2021/12/07 16:45:03;;;;;;;9.52;5.87;;;8.60;81.10;;;;;;10402789;33;12024920;-74
2021/12/07 16:51:06;;;;;;;8.60;4.45;;;8.50;81.10;;;;;;10748873;33;20028;-74
2021/12/07 16:57:08;;;;;;;10.05;6.43;;;8.50;80.90;;;;;;10748446;33;20348;-74
2021/12/07 17:03:13;;;;;;;9.80;6.60;;;8.50;81.00;;;;;;10748807;33;20024;-74
2021/12/07 17:09:17;;;;;;;8.77;6.72;;;8.40;80.90;;;;;;10772255;33;20050;-74
2021/12/07 17:15:20;;;;;;;8.02;5.25;;;8.40;81.20;;;;;;10824966;33;20020;-74
2021/12/07 17:21:22;;;;;;;19.08;9.68;;;8.40;81.10;;;;;;10824920;33;20012;-73
2021/12/07 17:27:26;;;;;;;12.43;9.32;;;8.20;81.00;;;;;;10821747;33;20024;-73
2021/12/07 17:33:28;;;;;;;11.93;8.57;;;8.10;81.10;;;;;;10823253;33;20071;-74
2021/12/07 17:39:31;;;;;;;14.85;9.82;;;8.00;80.90;;;;;;10824575;33;20046;-73
2021/12/07 17:45:34;;;;;;;12.45;8.32;;;7.90;80.70;;;;;;10813649;27;20063;-73
2021/12/07 17:51:37;;;;;;;21.12;14.18;;;7.90;81.00;;;;;;10811161;32;20418;-73
2021/12/07 17:57:39;;;;;;;19.23;12.20;;;8.00;81.40;;;;;;10823928;33;20024;-73
2021/12/07 18:03:42;;;;;;;23.20;13.32;;;7.90;81.00;;;;;;10811530;33;20414;-73
2021/12/07 18:09:45;;;;;;;15.23;10.82;;;7.80;80.70;;;;;;10823810;33;20042;-73
2021/12/07 18:15:48;;;;;;;22.10;14.80;;;7.70;80.40;;;;;;10823657;33;20046;-74
2021/12/07 18:21:50;;;;;;;20.50;14.65;;;7.70;80.60;;;;;;10823619;33;20011;-73
2021/12/07 18:27:53;;;;;;;22.60;16.00;;;7.30;80.40;;;;;;10810248;33;20348;-73
2021/12/07 18:33:56;;;;;;;24.70;16.83;;;7.10;81.20;;;;;;10823172;33;20054;-70
2021/12/07 18:39:58;;;;;;;26.55;19.00;;;7.10;81.10;;;;;;10823218;33;20439;-69
2021/12/07 18:46:01;;;;;;;25.15;18.67;;;7.20;81.10;;;;;;10828550;32;20400;-70
2021/12/07 18:52:04;;;;;;;23.90;17.33;;;7.20;81.00;;;;;;10828287;33;20046;-70
2021/12/07 18:58:08;;;;;;;24.42;15.82;;;7.10;81.10;;;;;;10828891;33;20039;-70
2021/12/07 19:04:10;;;;;;;25.83;19.02;;;6.60;81.40;;;;;;10815194;33;20023;-73
2021/12/07 19:10:20;;;;;;;19.33;15.23;;;6.60;81.90;;;;;;10828270;33;20020;-73
2021/12/07 19:16:23;;;;;;;21.60;15.27;;;6.80;81.40;;;;;;10827885;33;20431;-73
2021/12/07 19:22:25;;;;;;;24.20;18.42;;;6.70;80.80;;;;;;10828038;33;20344;-73
2021/12/07 19:28:27;;;;;;;19.70;16.33;;;6.70;80.90;;;;;;10828012;32;20019;-73
2021/12/07 19:35:06;;;;;;;20.92;15.50;;;6.80;81.30;;;;;;10827443;33;20020;-73
2021/12/07 19:41:22;;;;;;;28.67;18.83;;;6.70;81.10;;;;;;10828813;33;20048;-70
2021/12/07 19:47:25;;;;;;;29.27;19.58;;;6.70;80.80;;;;;;10827020;33;20024;-70
2021/12/07 19:53:30;;;;;;;24.02;18.80;;;6.70;81.00;;;;;;10826415;32;20027;-70
2021/12/07 19:59:36;;;;;;;28.08;20.60;;;6.80;81.10;;;;;;10827037;33;20335;-70
2021/12/07 20:05:41;;;;;;;30.05;20.45;;;6.70;80.80;;;;;;10826893;33;20086;-73
2021/12/07 20:11:45;;;;;;;31.08;24.77;;;6.70;81.30;;;;;;10826292;33;20032;-73
2021/12/07 20:17:51;;;;;;;26.02;22.52;;;6.70;80.90;;;;;;10826324;33;20032;-74
2021/12/07 20:23:53;;;;;;;35.97;26.98;;;6.70;81.10;;;;;;10826133;33;20046;-74
2021/12/07 20:30:01;;;;;;;33.20;25.27;;;6.60;80.60;;;;;;10825814;33;20028;-74
2021/12/07 20:36:03;;;;;;;34.20;24.15;;;6.50;80.20;;;;;;10825970;33;20426;-71
2021/12/07 20:42:05;;;;;;;29.52;22.30;;;6.50;80.40;;;;;;10826026;32;20043;-71
2021/12/07 20:48:07;;;;;;;37.03;27.35;;;6.30;81.10;;;;;;10825859;33;20054;-71
2021/12/07 20:54:11;;;;;;;33.42;26.75;;;6.10;81.40;;;;;;10822648;33;20054;-71
2021/12/07 21:00:20;;;;;;;26.77;22.08;;;6.10;81.60;;;;;;10825435;33;20040;-71
2021/12/07 21:06:23;;;;;;;29.48;19.05;;;5.90;82.30;;;;;;10822298;32;20024;-70
2021/12/07 21:12:25;;;;;;;34.72;25.52;;;5.80;82.20;;;;;;10824728;33;20066;-71
2021/12/07 21:18:27;;;;;;;35.20;28.00;;;5.80;82.40;;;;;;10824638;33;20027;-70
2021/12/07 21:24:30;;;;;;;41.35;31.98;;;6.10;82.80;;;;;;10824701;33;20066;-70
2021/12/07 21:30:32;;;;;;;29.02;25.05;;;6.10;82.10;;;;;;10824638;33;20063;-71
2021/12/07 21:36:34;;;;;;;41.90;32.97;;;6.10;82.40;;;;;;10824557;33;20028;-71
2021/12/07 21:42:37;;;;;;;30.95;24.77;;;6.10;82.30;;;;;;10824466;33;20028;-74
2021/12/07 21:48:39;;;;;;;34.65;26.83;;;5.90;82.70;;;;;;10824438;33;20396;-74
2021/12/07 21:54:41;;;;;;;32.15;21.35;;;6.00;82.40;;;;;;10822351;33;20051;-74
2021/12/07 22:00:45;;;;;;;25.88;20.58;;;5.90;82.10;;;;;;10824137;32;20032;-74
2021/12/07 22:06:50;;;;;;;30.52;22.00;;;5.90;82.20;;;;;;10823781;33;20036;-74
2021/12/07 22:12:54;;;;;;;30.08;20.52;;;5.90;82.50;;;;;;10823724;33;20028;-74
2021/12/07 22:18:56;;;;;;;25.70;19.42;;;5.90;82.30;;;;;;10827140;32;20011;-74
2021/12/07 22:25:07;;;;;;;24.63;17.87;;;5.70;81.80;;;;;;10830005;33;20059;-74
2021/12/07 22:31:09;;;;;;;23.38;18.35;;;5.70;81.90;;;;;;10816569;33;20071;-74
2021/12/07 22:37:12;;;;;;;29.77;23.15;;;5.70;81.70;;;;;;10816559;33;20023;-74
2021/12/07 22:43:14;;;;;;;23.23;17.33;;;5.60;81.60;;;;;;10829496;32;20316;-74
2021/12/07 22:49:17;;;;;;;23.75;17.10;;;5.60;81.40;;;;;;10829294;33;20047;-74
2021/12/07 22:55:20;;;;;;;24.75;18.33;;;5.50;81.20;;;;;;10815951;33;20019;-70
2021/12/07 23:01:22;;;;;;;24.37;16.10;;;5.50;81.10;;;;;;10829127;32;20320;-70
2021/12/07 23:07:24;;;;;;;24.40;17.00;;;5.40;81.10;;;;;;10829892;32;20051;-70
2021/12/07 23:13:26;;;;;;;19.12;13.90;;;5.40;80.90;;;;;;10813442;32;20036;-70
2021/12/07 23:19:28;;;;;;;22.62;16.48;;;5.30;80.80;;;;;;10828164;33;20051;-70
2021/12/07 23:25:34;;;;;;;22.83;15.73;;;5.30;80.80;;;;;;10814884;33;20332;-71
2021/12/07 23:31:43;;;;;;;18.65;15.27;;;5.30;80.80;;;;;;10827746;32;20345;-70
2021/12/07 23:38:18;;;;;;;19.80;16.05;;;5.20;80.90;;;;;;10828028;33;20024;-70
2021/12/07 23:44:20;;;;;;;20.63;15.67;;;5.10;81.20;;;;;;10827653;32;20020;-70
2021/12/07 23:50:23;;;;;;;23.17;14.50;;;5.10;81.30;;;;;;10823804;33;20388;-70
2021/12/07 23:56:25;;;;;;;16.62;12.82;;;5.20;81.30;;;;;;10814280;33;20015;-70
